sensor_id;sensor_type;location;lat;lon;timestamp;P1;durP1;ratioP1;P2;durP2;ratioP2
72109;SDS011;59983;52.010;5.420;2023-05-29T00:02:23;9.10;;;4.63;;
72109;SDS011;59983;52.010;5.420;2023-05-29T00:04:49;10.68;;;6.07;;
72109;SDS011;59983;52.010;5.420;2023-05-29T00:07:17;14.05;;;6.75;;
72109;SDS011;59983;52.010;5.420;2023-05-29T00:09:43;14.77;;;5.65;;
72109;SDS011;59983;52.010;5.420;2023-05-29T00:12:10;15.52;;;5.95;;
72109;SDS011;59983;52.010;5.420;2023-05-29T00:14:38;13.20;;;5.27;;
72109;SDS011;59983;52.010;5.420;2023-05-29T00:17:04;15.15;;;6.50;;
72109;SDS011;59983;52.010;5.420;2023-05-29T00:19:32;16.95;;;6.15;;
72109;SDS011;59983;52.010;5.420;2023-05-29T00:21:58;14.90;;;5.53;;
72109;SDS011;59983;52.010;5.420;2023-05-29T00:24:25;16.63;;;5.95;;
72109;SDS011;59983;52.010;5.420;2023-05-29T00:26:52;12.53;;;6.27;;
72109;SDS011;59983;52.010;5.420;2023-05-29T00:29:19;19.90;;;5.50;;
72109;SDS011;59983;52.010;5.420;2023-05-29T00:31:47;15.73;;;6.43;;
72109;SDS011;59983;52.010;5.420;2023-05-29T00:34:13;12.15;;;5.22;;
72109;SDS011;59983;52.010;5.420;2023-05-29T00:36:40;15.07;;;6.55;;
72109;SDS011;59983;52.010;5.420;2023-05-29T00:39:07;10.63;;;6.10;;
72109;SDS011;59983;52.010;5.420;2023-05-29T00:41:33;13.75;;;6.25;;
72109;SDS011;59983;52.010;5.420;2023-05-29T00:44:00;19.13;;;6.53;;
72109;SDS011;59983;52.010;5.420;2023-05-29T00:46:27;11.25;;;6.10;;
72109;SDS011;59983;52.010;5.420;2023-05-29T00:48:54;15.65;;;6.57;;
72109;SDS011;59983;52.010;5.420;2023-05-29T00:51:20;13.67;;;6.40;;
72109;SDS011;59983;52.010;5.420;2023-05-29T00:53:47;12.25;;;6.07;;
72109;SDS011;59983;52.010;5.420;2023-05-29T00:56:16;16.35;;;6.40;;
72109;SDS011;59983;52.010;5.420;2023-05-29T00:58:43;14.10;;;6.03;;
72109;SDS011;59983;52.010;5.420;2023-05-29T01:01:10;16.40;;;5.35;;
72109;SDS011;59983;52.010;5.420;2023-05-29T01:03:37;11.07;;;5.60;;
72109;SDS011;59983;52.010;5.420;2023-05-29T01:06:04;17.80;;;6.32;;
72109;SDS011;59983;52.010;5.420;2023-05-29T01:08:32;15.27;;;7.30;;
72109;SDS011;59983;52.010;5.420;2023-05-29T01:13:56;10.23;;;6.30;;
72109;SDS011;59983;52.010;5.420;2023-05-29T01:16:31;18.67;;;6.17;;
72109;SDS011;59983;52.010;5.420;2023-05-29T01:22:13;12.48;;;5.00;;
72109;SDS011;59983;52.010;5.420;2023-05-29T01:24:49;9.60;;;5.40;;
72109;SDS011;59983;52.010;5.420;2023-05-29T01:27:18;10.27;;;6.38;;
72109;SDS011;59983;52.010;5.420;2023-05-29T01:29:47;15.17;;;5.70;;
72109;SDS011;59983;52.010;5.420;2023-05-29T01:32:16;12.73;;;6.07;;
72109;SDS011;59983;52.010;5.420;2023-05-29T01:34:43;11.40;;;5.63;;
72109;SDS011;59983;52.010;5.420;2023-05-29T01:37:09;11.73;;;5.47;;
72109;SDS011;59983;52.010;5.420;2023-05-29T01:39:36;8.52;;;5.95;;
72109;SDS011;59983;52.010;5.420;2023-05-29T01:42:03;11.70;;;6.40;;
72109;SDS011;59983;52.010;5.420;2023-05-29T01:44:31;11.55;;;5.88;;
72109;SDS011;59983;52.010;5.420;2023-05-29T01:46:58;15.18;;;5.85;;
72109;SDS011;59983;52.010;5.420;2023-05-29T01:49:25;14.68;;;5.70;;
72109;SDS011;59983;52.010;5.420;2023-05-29T01:51:53;12.90;;;5.72;;
72109;SDS011;59983;52.010;5.420;2023-05-29T01:54:20;11.73;;;5.87;;
72109;SDS011;59983;52.010;5.420;2023-05-29T01:56:47;12.80;;;5.30;;
72109;SDS011;59983;52.010;5.420;2023-05-29T01:59:14;14.32;;;7.00;;
72109;SDS011;59983;52.010;5.420;2023-05-29T02:01:41;11.82;;;6.38;;
72109;SDS011;59983;52.010;5.420;2023-05-29T02:04:08;18.80;;;7.22;;
72109;SDS011;59983;52.010;5.420;2023-05-29T02:06:35;11.53;;;6.03;;
72109;SDS011;59983;52.010;5.420;2023-05-29T02:09:01;10.07;;;5.43;;
72109;SDS011;59983;52.010;5.420;2023-05-29T02:11:29;13.82;;;6.25;;
72109;SDS011;59983;52.010;5.420;2023-05-29T02:13:55;12.25;;;6.47;;
72109;SDS011;59983;52.010;5.420;2023-05-29T02:16:22;9.82;;;6.43;;
72109;SDS011;59983;52.010;5.420;2023-05-29T02:18:48;12.37;;;6.60;;
72109;SDS011;59983;52.010;5.420;2023-05-29T02:21:15;12.88;;;5.55;;
72109;SDS011;59983;52.010;5.420;2023-05-29T02:23:42;9.00;;;6.32;;
72109;SDS011;59983;52.010;5.420;2023-05-29T02:26:09;17.27;;;6.07;;
72109;SDS011;59983;52.010;5.420;2023-05-29T02:28:35;13.60;;;6.10;;
72109;SDS011;59983;52.010;5.420;2023-05-29T02:31:02;14.07;;;6.77;;
72109;SDS011;59983;52.010;5.420;2023-05-29T02:33:29;18.48;;;5.50;;
72109;SDS011;59983;52.010;5.420;2023-05-29T02:35:56;16.00;;;6.47;;
72109;SDS011;59983;52.010;5.420;2023-05-29T02:38:22;11.80;;;6.30;;
72109;SDS011;59983;52.010;5.420;2023-05-29T02:40:49;12.35;;;6.00;;
72109;SDS011;59983;52.010;5.420;2023-05-29T02:43:16;18.07;;;6.00;;
72109;SDS011;59983;52.010;5.420;2023-05-29T02:45:42;8.60;;;5.55;;
72109;SDS011;59983;52.010;5.420;2023-05-29T02:48:09;15.57;;;6.20;;
72109;SDS011;59983;52.010;5.420;2023-05-29T02:50:36;14.10;;;5.88;;
72109;SDS011;59983;52.010;5.420;2023-05-29T02:53:02;14.05;;;6.40;;
72109;SDS011;59983;52.010;5.420;2023-05-29T02:55:29;11.87;;;5.43;;
72109;SDS011;59983;52.010;5.420;2023-05-29T02:57:58;17.08;;;6.15;;
72109;SDS011;59983;52.010;5.420;2023-05-29T03:00:27;16.33;;;5.70;;
72109;SDS011;59983;52.010;5.420;2023-05-29T03:02:54;11.70;;;5.38;;
72109;SDS011;59983;52.010;5.420;2023-05-29T03:05:21;15.15;;;5.32;;
72109;SDS011;59983;52.010;5.420;2023-05-29T03:07:48;13.37;;;5.27;;
72109;SDS011;59983;52.010;5.420;2023-05-29T03:10:14;16.25;;;6.45;;
72109;SDS011;59983;52.010;5.420;2023-05-29T03:12:44;16.55;;;6.43;;
72109;SDS011;59983;52.010;5.420;2023-05-29T03:15:11;12.23;;;4.93;;
72109;SDS011;59983;52.010;5.420;2023-05-29T03:17:38;11.35;;;6.53;;
72109;SDS011;59983;52.010;5.420;2023-05-29T03:20:05;10.23;;;5.00;;
72109;SDS011;59983;52.010;5.420;2023-05-29T03:22:32;9.75;;;5.80;;
72109;SDS011;59983;52.010;5.420;2023-05-29T03:24:59;10.02;;;6.63;;
72109;SDS011;59983;52.010;5.420;2023-05-29T03:27:25;15.95;;;5.90;;
72109;SDS011;59983;52.010;5.420;2023-05-29T03:29:52;16.38;;;7.80;;
72109;SDS011;59983;52.010;5.420;2023-05-29T03:32:18;12.10;;;5.57;;
72109;SDS011;59983;52.010;5.420;2023-05-29T03:34:45;8.48;;;5.68;;
72109;SDS011;59983;52.010;5.420;2023-05-29T03:37:13;14.00;;;6.88;;
72109;SDS011;59983;52.010;5.420;2023-05-29T03:39:39;11.02;;;5.45;;
72109;SDS011;59983;52.010;5.420;2023-05-29T03:42:06;13.13;;;6.57;;
72109;SDS011;59983;52.010;5.420;2023-05-29T03:44:33;10.30;;;6.13;;
72109;SDS011;59983;52.010;5.420;2023-05-29T03:46:59;7.68;;;5.10;;
72109;SDS011;59983;52.010;5.420;2023-05-29T03:49:26;12.68;;;6.63;;
72109;SDS011;59983;52.010;5.420;2023-05-29T03:51:53;7.07;;;4.45;;
72109;SDS011;59983;52.010;5.420;2023-05-29T03:54:19;12.52;;;6.07;;
72109;SDS011;59983;52.010;5.420;2023-05-29T03:56:46;11.10;;;6.10;;
72109;SDS011;59983;52.010;5.420;2023-05-29T03:59:12;12.75;;;5.10;;
72109;SDS011;59983;52.010;5.420;2023-05-29T04:01:39;9.98;;;6.05;;
72109;SDS011;59983;52.010;5.420;2023-05-29T04:04:05;12.35;;;5.25;;
72109;SDS011;59983;52.010;5.420;2023-05-29T04:06:32;13.82;;;5.95;;
72109;SDS011;59983;52.010;5.420;2023-05-29T04:08:59;15.73;;;5.60;;
72109;SDS011;59983;52.010;5.420;2023-05-29T04:11:26;15.55;;;6.28;;
72109;SDS011;59983;52.010;5.420;2023-05-29T04:13:52;12.85;;;5.95;;
72109;SDS011;59983;52.010;5.420;2023-05-29T04:16:19;12.05;;;4.95;;
72109;SDS011;59983;52.010;5.420;2023-05-29T04:18:45;12.60;;;6.20;;
72109;SDS011;59983;52.010;5.420;2023-05-29T04:21:12;14.17;;;5.33;;
72109;SDS011;59983;52.010;5.420;2023-05-29T04:23:39;11.60;;;6.32;;
72109;SDS011;59983;52.010;5.420;2023-05-29T04:26:05;10.52;;;4.72;;
72109;SDS011;59983;52.010;5.420;2023-05-29T04:28:32;14.55;;;6.18;;
72109;SDS011;59983;52.010;5.420;2023-05-29T04:30:58;11.23;;;6.30;;
72109;SDS011;59983;52.010;5.420;2023-05-29T04:33:25;16.43;;;6.37;;
72109;SDS011;59983;52.010;5.420;2023-05-29T04:35:52;8.43;;;5.13;;
72109;SDS011;59983;52.010;5.420;2023-05-29T04:38:18;10.98;;;6.13;;
72109;SDS011;59983;52.010;5.420;2023-05-29T04:40:51;13.57;;;6.10;;
72109;SDS011;59983;52.010;5.420;2023-05-29T04:43:18;18.08;;;6.43;;
72109;SDS011;59983;52.010;5.420;2023-05-29T04:45:45;11.60;;;5.07;;
72109;SDS011;59983;52.010;5.420;2023-05-29T04:48:11;8.85;;;4.90;;
72109;SDS011;59983;52.010;5.420;2023-05-29T04:50:38;17.95;;;6.38;;
72109;SDS011;59983;52.010;5.420;2023-05-29T04:53:05;10.40;;;5.50;;
72109;SDS011;59983;52.010;5.420;2023-05-29T04:55:32;11.45;;;5.60;;
72109;SDS011;59983;52.010;5.420;2023-05-29T04:57:59;15.73;;;6.03;;
72109;SDS011;59983;52.010;5.420;2023-05-29T05:00:26;16.42;;;5.25;;
72109;SDS011;59983;52.010;5.420;2023-05-29T05:02:53;21.70;;;6.78;;
72109;SDS011;59983;52.010;5.420;2023-05-29T05:05:20;12.93;;;6.13;;
72109;SDS011;59983;52.010;5.420;2023-05-29T05:07:46;23.08;;;5.70;;
72109;SDS011;59983;52.010;5.420;2023-05-29T05:10:13;13.57;;;5.83;;
72109;SDS011;59983;52.010;5.420;2023-05-29T05:12:39;9.27;;;5.00;;
72109;SDS011;59983;52.010;5.420;2023-05-29T05:15:06;13.25;;;5.88;;
72109;SDS011;59983;52.010;5.420;2023-05-29T05:17:33;11.50;;;4.75;;
72109;SDS011;59983;52.010;5.420;2023-05-29T05:20:00;8.60;;;5.30;;
72109;SDS011;59983;52.010;5.420;2023-05-29T05:22:27;9.47;;;5.83;;
72109;SDS011;59983;52.010;5.420;2023-05-29T05:24:53;11.52;;;5.35;;
72109;SDS011;59983;52.010;5.420;2023-05-29T05:27:20;13.25;;;6.07;;
72109;SDS011;59983;52.010;5.420;2023-05-29T05:29:47;15.20;;;6.45;;
72109;SDS011;59983;52.010;5.420;2023-05-29T05:32:13;10.95;;;5.63;;
72109;SDS011;59983;52.010;5.420;2023-05-29T05:34:40;15.07;;;5.70;;
72109;SDS011;59983;52.010;5.420;2023-05-29T05:37:06;12.30;;;6.45;;
72109;SDS011;59983;52.010;5.420;2023-05-29T05:39:33;11.80;;;5.93;;
72109;SDS011;59983;52.010;5.420;2023-05-29T05:42:00;12.98;;;6.20;;
72109;SDS011;59983;52.010;5.420;2023-05-29T05:44:27;9.25;;;4.95;;
72109;SDS011;59983;52.010;5.420;2023-05-29T05:46:54;19.10;;;4.90;;
72109;SDS011;59983;52.010;5.420;2023-05-29T05:49:21;9.38;;;4.40;;
72109;SDS011;59983;52.010;5.420;2023-05-29T05:51:47;17.85;;;5.53;;
72109;SDS011;59983;52.010;5.420;2023-05-29T05:54:15;10.23;;;4.75;;
72109;SDS011;59983;52.010;5.420;2023-05-29T05:56:42;14.05;;;5.00;;
72109;SDS011;59983;52.010;5.420;2023-05-29T05:59:09;17.90;;;4.97;;
72109;SDS011;59983;52.010;5.420;2023-05-29T06:01:35;11.90;;;5.03;;
72109;SDS011;59983;52.010;5.420;2023-05-29T06:04:02;10.50;;;4.82;;
72109;SDS011;59983;52.010;5.420;2023-05-29T06:06:29;13.40;;;5.40;;
72109;SDS011;59983;52.010;5.420;2023-05-29T06:08:58;10.80;;;5.22;;
72109;SDS011;59983;52.010;5.420;2023-05-29T06:11:24;9.07;;;5.03;;
72109;SDS011;59983;52.010;5.420;2023-05-29T06:13:54;14.13;;;4.97;;
72109;SDS011;59983;52.010;5.420;2023-05-29T06:16:20;10.82;;;4.68;;
72109;SDS011;59983;52.010;5.420;2023-05-29T06:18:47;10.00;;;4.15;;
72109;SDS011;59983;52.010;5.420;2023-05-29T06:21:14;10.18;;;5.43;;
72109;SDS011;59983;52.010;5.420;2023-05-29T06:23:40;10.63;;;5.13;;
72109;SDS011;59983;52.010;5.420;2023-05-29T06:26:07;9.85;;;4.55;;
72109;SDS011;59983;52.010;5.420;2023-05-29T06:28:34;16.95;;;5.25;;
72109;SDS011;59983;52.010;5.420;2023-05-29T06:31:01;7.88;;;4.28;;
72109;SDS011;59983;52.010;5.420;2023-05-29T06:33:27;6.30;;;4.47;;
72109;SDS011;59983;52.010;5.420;2023-05-29T06:35:55;10.87;;;5.10;;
72109;SDS011;59983;52.010;5.420;2023-05-29T06:38:22;10.75;;;5.03;;
72109;SDS011;59983;52.010;5.420;2023-05-29T06:40:48;11.35;;;5.13;;
72109;SDS011;59983;52.010;5.420;2023-05-29T06:43:15;12.45;;;4.72;;
72109;SDS011;59983;52.010;5.420;2023-05-29T06:45:41;16.38;;;5.00;;
72109;SDS011;59983;52.010;5.420;2023-05-29T06:48:08;13.53;;;4.80;;
72109;SDS011;59983;52.010;5.420;2023-05-29T06:50:35;11.95;;;4.50;;
72109;SDS011;59983;52.010;5.420;2023-05-29T06:53:01;6.55;;;4.57;;
72109;SDS011;59983;52.010;5.420;2023-05-29T06:55:28;7.75;;;4.20;;
72109;SDS011;59983;52.010;5.420;2023-05-29T06:57:54;9.25;;;4.90;;
72109;SDS011;59983;52.010;5.420;2023-05-29T07:00:21;10.30;;;4.93;;
72109;SDS011;59983;52.010;5.420;2023-05-29T07:02:48;13.27;;;3.97;;
72109;SDS011;59983;52.010;5.420;2023-05-29T07:05:14;8.57;;;4.82;;
72109;SDS011;59983;52.010;5.420;2023-05-29T07:07:41;8.32;;;4.18;;
72109;SDS011;59983;52.010;5.420;2023-05-29T07:10:07;6.50;;;4.50;;
72109;SDS011;59983;52.010;5.420;2023-05-29T07:12:34;7.60;;;4.40;;
72109;SDS011;59983;52.010;5.420;2023-05-29T07:15:01;7.35;;;3.72;;
72109;SDS011;59983;52.010;5.420;2023-05-29T07:17:28;13.80;;;3.88;;
72109;SDS011;59983;52.010;5.420;2023-05-29T07:19:55;11.88;;;5.13;;
72109;SDS011;59983;52.010;5.420;2023-05-29T07:22:23;8.00;;;3.85;;
72109;SDS011;59983;52.010;5.420;2023-05-29T07:24:51;9.40;;;4.90;;
72109;SDS011;59983;52.010;5.420;2023-05-29T07:27:17;10.95;;;4.53;;
72109;SDS011;59983;52.010;5.420;2023-05-29T07:29:44;10.45;;;4.63;;
72109;SDS011;59983;52.010;5.420;2023-05-29T07:32:10;10.90;;;4.22;;
72109;SDS011;59983;52.010;5.420;2023-05-29T07:34:37;8.85;;;5.00;;
72109;SDS011;59983;52.010;5.420;2023-05-29T07:37:04;11.37;;;4.57;;
72109;SDS011;59983;52.010;5.420;2023-05-29T07:39:33;9.50;;;3.63;;
72109;SDS011;59983;52.010;5.420;2023-05-29T07:42:01;8.02;;;4.75;;
72109;SDS011;59983;52.010;5.420;2023-05-29T07:44:28;6.03;;;3.75;;
72109;SDS011;59983;52.010;5.420;2023-05-29T07:46:55;14.68;;;4.50;;
72109;SDS011;59983;52.010;5.420;2023-05-29T07:49:21;13.13;;;3.30;;
72109;SDS011;59983;52.010;5.420;2023-05-29T07:51:48;6.85;;;3.92;;
72109;SDS011;59983;52.010;5.420;2023-05-29T07:54:15;9.88;;;3.78;;
72109;SDS011;59983;52.010;5.420;2023-05-29T07:56:44;13.80;;;4.25;;
72109;SDS011;59983;52.010;5.420;2023-05-29T07:59:12;10.25;;;4.28;;
72109;SDS011;59983;52.010;5.420;2023-05-29T08:01:39;12.27;;;3.87;;
72109;SDS011;59983;52.010;5.420;2023-05-29T08:04:07;10.52;;;3.83;;
72109;SDS011;59983;52.010;5.420;2023-05-29T08:06:34;13.95;;;4.45;;
72109;SDS011;59983;52.010;5.420;2023-05-29T08:09:00;8.20;;;4.40;;
72109;SDS011;59983;52.010;5.420;2023-05-29T08:11:27;11.13;;;4.63;;
72109;SDS011;59983;52.010;5.420;2023-05-29T08:13:54;9.30;;;3.33;;
72109;SDS011;59983;52.010;5.420;2023-05-29T08:16:21;8.57;;;3.67;;
72109;SDS011;59983;52.010;5.420;2023-05-29T08:18:48;11.43;;;3.90;;
72109;SDS011;59983;52.010;5.420;2023-05-29T08:21:15;11.20;;;3.55;;
72109;SDS011;59983;52.010;5.420;2023-05-29T08:23:41;11.43;;;3.90;;
72109;SDS011;59983;52.010;5.420;2023-05-29T08:26:08;10.50;;;4.37;;
72109;SDS011;59983;52.010;5.420;2023-05-29T08:28:35;9.50;;;4.13;;
72109;SDS011;59983;52.010;5.420;2023-05-29T08:31:01;6.80;;;3.45;;
72109;SDS011;59983;52.010;5.420;2023-05-29T08:33:28;7.82;;;4.03;;
72109;SDS011;59983;52.010;5.420;2023-05-29T08:35:57;10.70;;;3.63;;
72109;SDS011;59983;52.010;5.420;2023-05-29T08:38:26;6.90;;;3.57;;
72109;SDS011;59983;52.010;5.420;2023-05-29T08:40:54;9.40;;;4.22;;
72109;SDS011;59983;52.010;5.420;2023-05-29T08:43:23;9.43;;;3.97;;
72109;SDS011;59983;52.010;5.420;2023-05-29T08:45:53;7.35;;;3.80;;
72109;SDS011;59983;52.010;5.420;2023-05-29T08:48:24;9.68;;;4.63;;
72109;SDS011;59983;52.010;5.420;2023-05-29T08:50:53;11.10;;;3.63;;
72109;SDS011;59983;52.010;5.420;2023-05-29T08:53:22;7.93;;;3.67;;
72109;SDS011;59983;52.010;5.420;2023-05-29T08:55:50;9.48;;;3.50;;
72109;SDS011;59983;52.010;5.420;2023-05-29T08:58:19;5.68;;;4.00;;
72109;SDS011;59983;52.010;5.420;2023-05-29T09:00:52;8.50;;;3.63;;
72109;SDS011;59983;52.010;5.420;2023-05-29T09:03:19;6.93;;;3.50;;
72109;SDS011;59983;52.010;5.420;2023-05-29T09:05:47;8.48;;;3.50;;
72109;SDS011;59983;52.010;5.420;2023-05-29T09:08:14;9.35;;;3.75;;
72109;SDS011;59983;52.010;5.420;2023-05-29T09:10:43;10.18;;;3.50;;
72109;SDS011;59983;52.010;5.420;2023-05-29T09:13:11;11.93;;;3.58;;
72109;SDS011;59983;52.010;5.420;2023-05-29T09:15:40;5.50;;;3.53;;
72109;SDS011;59983;52.010;5.420;2023-05-29T09:18:10;6.72;;;2.78;;
72109;SDS011;59983;52.010;5.420;2023-05-29T09:20:37;8.88;;;3.92;;
72109;SDS011;59983;52.010;5.420;2023-05-29T09:23:04;8.38;;;3.53;;
72109;SDS011;59983;52.010;5.420;2023-05-29T09:25:33;5.05;;;3.10;;
72109;SDS011;59983;52.010;5.420;2023-05-29T09:28:03;7.27;;;3.63;;
72109;SDS011;59983;52.010;5.420;2023-05-29T09:30:33;7.65;;;3.30;;
72109;SDS011;59983;52.010;5.420;2023-05-29T09:33:01;8.15;;;4.00;;
72109;SDS011;59983;52.010;5.420;2023-05-29T09:35:32;9.43;;;3.53;;
72109;SDS011;59983;52.010;5.420;2023-05-29T09:38:00;8.52;;;3.45;;
72109;SDS011;59983;52.010;5.420;2023-05-29T09:40:31;7.83;;;3.53;;
72109;SDS011;59983;52.010;5.420;2023-05-29T09:43:12;8.02;;;4.00;;
72109;SDS011;59983;52.010;5.420;2023-05-29T09:45:40;11.55;;;3.78;;
72109;SDS011;59983;52.010;5.420;2023-05-29T09:48:13;6.03;;;3.08;;
72109;SDS011;59983;52.010;5.420;2023-05-29T09:50:41;9.68;;;3.53;;
72109;SDS011;59983;52.010;5.420;2023-05-29T09:53:23;5.97;;;3.50;;
72109;SDS011;59983;52.010;5.420;2023-05-29T09:55:51;4.30;;;2.90;;
72109;SDS011;59983;52.010;5.420;2023-05-29T09:58:19;9.40;;;3.42;;
72109;SDS011;59983;52.010;5.420;2023-05-29T10:00:46;7.78;;;3.03;;
72109;SDS011;59983;52.010;5.420;2023-05-29T10:03:15;7.47;;;2.70;;
72109;SDS011;59983;52.010;5.420;2023-05-29T10:05:43;15.97;;;3.10;;
72109;SDS011;59983;52.010;5.420;2023-05-29T10:08:14;6.15;;;3.33;;
72109;SDS011;59983;52.010;5.420;2023-05-29T10:10:44;13.50;;;3.70;;
72109;SDS011;59983;52.010;5.420;2023-05-29T10:13:14;6.85;;;3.38;;
72109;SDS011;59983;52.010;5.420;2023-05-29T10:15:41;11.45;;;3.42;;
72109;SDS011;59983;52.010;5.420;2023-05-29T10:18:16;7.97;;;3.43;;
72109;SDS011;59983;52.010;5.420;2023-05-29T10:20:52;8.90;;;3.05;;
72109;SDS011;59983;52.010;5.420;2023-05-29T10:23:24;9.90;;;3.17;;
72109;SDS011;59983;52.010;5.420;2023-05-29T10:25:53;9.10;;;2.92;;
72109;SDS011;59983;52.010;5.420;2023-05-29T10:28:23;6.20;;;2.70;;
72109;SDS011;59983;52.010;5.420;2023-05-29T10:30:52;8.73;;;3.43;;
72109;SDS011;59983;52.010;5.420;2023-05-29T10:33:38;12.35;;;4.05;;
72109;SDS011;59983;52.010;5.420;2023-05-29T10:36:28;8.40;;;3.35;;
72109;SDS011;59983;52.010;5.420;2023-05-29T10:39:02;7.65;;;3.40;;
72109;SDS011;59983;52.010;5.420;2023-05-29T10:41:29;7.13;;;3.33;;
72109;SDS011;59983;52.010;5.420;2023-05-29T10:43:58;10.13;;;3.83;;
72109;SDS011;59983;52.010;5.420;2023-05-29T10:49:18;9.82;;;3.60;;
72109;SDS011;59983;52.010;5.420;2023-05-29T10:51:46;9.05;;;4.25;;
72109;SDS011;59983;52.010;5.420;2023-05-29T10:54:12;8.10;;;3.45;;
72109;SDS011;59983;52.010;5.420;2023-05-29T10:56:51;12.20;;;4.17;;
72109;SDS011;59983;52.010;5.420;2023-05-29T10:59:25;8.98;;;3.40;;
72109;SDS011;59983;52.010;5.420;2023-05-29T11:01:54;8.82;;;3.47;;
72109;SDS011;59983;52.010;5.420;2023-05-29T11:06:48;8.13;;;3.33;;
72109;SDS011;59983;52.010;5.420;2023-05-29T11:15:06;12.43;;;3.92;;
72109;SDS011;59983;52.010;5.420;2023-05-29T11:20:06;7.97;;;3.60;;
72109;SDS011;59983;52.010;5.420;2023-05-29T11:22:45;8.00;;;3.40;;
72109;SDS011;59983;52.010;5.420;2023-05-29T11:25:24;8.80;;;3.13;;
72109;SDS011;59983;52.010;5.420;2023-05-29T11:27:51;9.52;;;3.25;;
72109;SDS011;59983;52.010;5.420;2023-05-29T11:30:18;8.10;;;2.92;;
72109;SDS011;59983;52.010;5.420;2023-05-29T11:32:46;10.93;;;3.58;;
72109;SDS011;59983;52.010;5.420;2023-05-29T11:35:13;8.67;;;3.23;;
72109;SDS011;59983;52.010;5.420;2023-05-29T11:37:40;8.88;;;3.58;;
72109;SDS011;59983;52.010;5.420;2023-05-29T11:40:12;9.20;;;3.63;;
72109;SDS011;59983;52.010;5.420;2023-05-29T11:42:45;6.95;;;3.72;;
72109;SDS011;59983;52.010;5.420;2023-05-29T11:45:18;11.85;;;3.63;;
72109;SDS011;59983;52.010;5.420;2023-05-29T11:47:53;9.53;;;2.87;;
72109;SDS011;59983;52.010;5.420;2023-05-29T11:50:22;7.55;;;3.75;;
72109;SDS011;59983;52.010;5.420;2023-05-29T11:52:50;6.05;;;3.00;;
72109;SDS011;59983;52.010;5.420;2023-05-29T11:55:20;12.48;;;3.45;;
72109;SDS011;59983;52.010;5.420;2023-05-29T11:57:48;13.18;;;3.50;;
72109;SDS011;59983;52.010;5.420;2023-05-29T12:00:16;6.53;;;2.77;;
72109;SDS011;59983;52.010;5.420;2023-05-29T12:02:45;8.65;;;3.00;;
72109;SDS011;59983;52.010;5.420;2023-05-29T12:05:16;7.47;;;2.80;;
72109;SDS011;59983;52.010;5.420;2023-05-29T12:07:48;7.95;;;2.70;;
72109;SDS011;59983;52.010;5.420;2023-05-29T12:10:20;10.65;;;3.17;;
72109;SDS011;59983;52.010;5.420;2023-05-29T12:12:50;8.97;;;3.60;;
72109;SDS011;59983;52.010;5.420;2023-05-29T12:15:18;5.70;;;2.60;;
72109;SDS011;59983;52.010;5.420;2023-05-29T12:17:45;7.03;;;2.80;;
72109;SDS011;59983;52.010;5.420;2023-05-29T12:20:12;10.65;;;3.20;;
72109;SDS011;59983;52.010;5.420;2023-05-29T12:22:41;7.05;;;2.53;;
72109;SDS011;59983;52.010;5.420;2023-05-29T12:25:09;30.53;;;3.57;;
72109;SDS011;59983;52.010;5.420;2023-05-29T12:27:38;10.25;;;2.85;;
72109;SDS011;59983;52.010;5.420;2023-05-29T12:30:09;11.10;;;2.95;;
72109;SDS011;59983;52.010;5.420;2023-05-29T12:32:49;18.75;;;3.05;;
72109;SDS011;59983;52.010;5.420;2023-05-29T12:35:24;11.68;;;3.05;;
72109;SDS011;59983;52.010;5.420;2023-05-29T12:38:02;9.43;;;2.67;;
72109;SDS011;59983;52.010;5.420;2023-05-29T12:40:31;7.55;;;2.53;;
72109;SDS011;59983;52.010;5.420;2023-05-29T12:43:06;9.35;;;2.58;;
72109;SDS011;59983;52.010;5.420;2023-05-29T12:45:36;8.25;;;2.83;;
72109;SDS011;59983;52.010;5.420;2023-05-29T12:48:03;7.90;;;2.47;;
72109;SDS011;59983;52.010;5.420;2023-05-29T12:50:35;7.97;;;2.70;;
72109;SDS011;59983;52.010;5.420;2023-05-29T12:53:11;7.85;;;2.97;;
72109;SDS011;59983;52.010;5.420;2023-05-29T12:55:40;13.55;;;2.60;;
72109;SDS011;59983;52.010;5.420;2023-05-29T12:58:08;11.25;;;2.92;;
72109;SDS011;59983;52.010;5.420;2023-05-29T13:00:37;5.65;;;2.70;;
72109;SDS011;59983;52.010;5.420;2023-05-29T13:03:05;6.27;;;2.67;;
72109;SDS011;59983;52.010;5.420;2023-05-29T13:05:32;7.68;;;2.45;;
72109;SDS011;59983;52.010;5.420;2023-05-29T13:07:59;9.38;;;2.92;;
72109;SDS011;59983;52.010;5.420;2023-05-29T13:10:26;7.28;;;2.78;;
72109;SDS011;59983;52.010;5.420;2023-05-29T13:12:54;6.85;;;2.28;;
72109;SDS011;59983;52.010;5.420;2023-05-29T13:15:22;13.33;;;2.67;;
72109;SDS011;59983;52.010;5.420;2023-05-29T13:17:49;8.13;;;2.47;;
72109;SDS011;59983;52.010;5.420;2023-05-29T13:20:17;4.80;;;2.55;;
72109;SDS011;59983;52.010;5.420;2023-05-29T13:22:44;7.20;;;2.40;;
72109;SDS011;59983;52.010;5.420;2023-05-29T13:25:13;10.63;;;2.40;;
72109;SDS011;59983;52.010;5.420;2023-05-29T13:27:42;8.10;;;2.80;;
72109;SDS011;59983;52.010;5.420;2023-05-29T13:30:11;8.65;;;2.42;;
72109;SDS011;59983;52.010;5.420;2023-05-29T13:32:39;7.63;;;2.25;;
72109;SDS011;59983;52.010;5.420;2023-05-29T13:35:06;8.48;;;2.25;;
72109;SDS011;59983;52.010;5.420;2023-05-29T13:37:33;8.43;;;2.40;;
72109;SDS011;59983;52.010;5.420;2023-05-29T13:40:02;9.20;;;2.20;;
72109;SDS011;59983;52.010;5.420;2023-05-29T13:42:30;11.35;;;2.60;;
72109;SDS011;59983;52.010;5.420;2023-05-29T13:44:57;9.38;;;2.55;;
72109;SDS011;59983;52.010;5.420;2023-05-29T13:47:23;8.00;;;2.50;;
72109;SDS011;59983;52.010;5.420;2023-05-29T13:49:52;9.23;;;2.90;;
72109;SDS011;59983;52.010;5.420;2023-05-29T13:52:20;7.47;;;3.47;;
72109;SDS011;59983;52.010;5.420;2023-05-29T13:54:46;7.78;;;2.58;;
72109;SDS011;59983;52.010;5.420;2023-05-29T13:57:13;9.35;;;2.83;;
72109;SDS011;59983;52.010;5.420;2023-05-29T13:59:39;13.07;;;2.85;;
72109;SDS011;59983;52.010;5.420;2023-05-29T14:02:06;11.88;;;3.17;;
72109;SDS011;59983;52.010;5.420;2023-05-29T14:04:34;6.27;;;2.10;;
72109;SDS011;59983;52.010;5.420;2023-05-29T14:07:01;9.93;;;2.05;;
72109;SDS011;59983;52.010;5.420;2023-05-29T14:09:27;10.40;;;2.67;;
72109;SDS011;59983;52.010;5.420;2023-05-29T14:11:56;8.52;;;2.78;;
72109;SDS011;59983;52.010;5.420;2023-05-29T14:14:24;16.13;;;3.92;;
72109;SDS011;59983;52.010;5.420;2023-05-29T14:16:51;12.90;;;2.70;;
72109;SDS011;59983;52.010;5.420;2023-05-29T14:19:18;8.32;;;2.30;;
72109;SDS011;59983;52.010;5.420;2023-05-29T14:21:45;12.55;;;2.42;;
72109;SDS011;59983;52.010;5.420;2023-05-29T14:24:12;4.80;;;2.42;;
72109;SDS011;59983;52.010;5.420;2023-05-29T14:26:39;11.60;;;2.55;;
72109;SDS011;59983;52.010;5.420;2023-05-29T14:29:07;13.87;;;3.07;;
72109;SDS011;59983;52.010;5.420;2023-05-29T14:31:40;11.70;;;2.85;;
72109;SDS011;59983;52.010;5.420;2023-05-29T14:34:07;8.55;;;2.95;;
72109;SDS011;59983;52.010;5.420;2023-05-29T14:36:34;5.40;;;2.20;;
72109;SDS011;59983;52.010;5.420;2023-05-29T14:39:02;7.25;;;2.22;;
72109;SDS011;59983;52.010;5.420;2023-05-29T14:41:29;10.27;;;2.30;;
72109;SDS011;59983;52.010;5.420;2023-05-29T14:43:56;10.38;;;3.05;;
72109;SDS011;59983;52.010;5.420;2023-05-29T14:46:25;14.68;;;2.83;;
72109;SDS011;59983;52.010;5.420;2023-05-29T14:48:53;9.57;;;2.72;;
72109;SDS011;59983;52.010;5.420;2023-05-29T14:51:20;7.65;;;2.72;;
72109;SDS011;59983;52.010;5.420;2023-05-29T14:53:47;7.73;;;3.07;;
72109;SDS011;59983;52.010;5.420;2023-05-29T14:56:14;7.43;;;2.40;;
72109;SDS011;59983;52.010;5.420;2023-05-29T14:58:40;13.25;;;3.88;;
72109;SDS011;59983;52.010;5.420;2023-05-29T15:01:07;7.60;;;2.63;;
72109;SDS011;59983;52.010;5.420;2023-05-29T15:03:34;9.55;;;2.70;;
72109;SDS011;59983;52.010;5.420;2023-05-29T15:06:04;7.23;;;2.60;;